createdAt,value
2018-03-02T00:02:02.595Z,-1.49
2018-03-02T00:04:30.434Z,-1.52
2018-03-02T00:06:58.106Z,-1.48
2018-03-02T00:09:25.665Z,-1.52
2018-03-02T00:11:53.191Z,-1.71
2018-03-02T00:14:20.746Z,-1.53
2018-03-02T00:16:51.302Z,-1.64
2018-03-02T00:19:19.152Z,-1.57
2018-03-02T00:21:46.675Z,-1.66
2018-03-02T00:24:14.200Z,-1.66
2018-03-02T00:26:41.746Z,-1.28
2018-03-02T00:29:09.274Z,-1.28
2018-03-02T00:31:36.984Z,-1.54
2018-03-02T00:34:04.527Z,-1.40
2018-03-02T00:36:32.043Z,-1.35
2018-03-02T00:38:59.593Z,-1.30
2018-03-02T00:41:27.113Z,-1.20
2018-03-02T00:43:54.841Z,-1.48
2018-03-02T00:46:22.359Z,-1.32
2018-03-02T00:48:49.882Z,-1.68
2018-03-02T00:51:17.425Z,-1.69
2018-03-02T00:53:44.947Z,-1.42
2018-03-02T00:56:12.514Z,-1.47
2018-03-02T00:58:40.031Z,-1.57
2018-03-02T01:01:07.554Z,-1.29
2018-03-02T01:03:35.108Z,-1.27
2018-03-02T01:06:02.626Z,-1.49
2018-03-02T01:08:30.610Z,-1.30
2018-03-02T01:10:58.129Z,-1.12
2018-03-02T01:13:25.826Z,-1.20
2018-03-02T01:15:53.374Z,-1.42
2018-03-02T01:18:20.891Z,-1.33
2018-03-02T01:20:48.747Z,-1.49
2018-03-02T01:23:16.258Z,-1.64
2018-03-02T01:25:43.773Z,-1.70
2018-03-02T01:28:11.321Z,-1.37
2018-03-02T01:30:38.849Z,-1.54
2018-03-02T01:33:06.754Z,-1.66
2018-03-02T01:35:34.275Z,-1.64
2018-03-02T01:38:01.803Z,-1.68
2018-03-02T01:40:29.362Z,-1.69
2018-03-02T01:42:56.927Z,-1.55
2018-03-02T01:45:24.653Z,-1.56
2018-03-02T01:47:52.169Z,-1.62
2018-03-02T01:50:19.708Z,-1.68
2018-03-02T01:52:47.257Z,-2.13
2018-03-02T01:55:14.826Z,-1.98
2018-03-02T01:57:42.463Z,-1.75
2018-03-02T02:00:09.976Z,-1.64
2018-03-02T02:02:37.522Z,-1.67
2018-03-02T02:05:05.092Z,-1.92
2018-03-02T02:07:32.627Z,-1.80
2018-03-02T02:10:00.187Z,-1.69
2018-03-02T02:12:28.039Z,-2.07
2018-03-02T02:14:55.561Z,-2.08
2018-03-02T02:17:23.109Z,-2.05
2018-03-02T02:19:50.625Z,-1.87
2018-03-02T02:22:18.489Z,-1.85
2018-03-02T02:24:46.002Z,-1.47
2018-03-02T02:27:13.802Z,-1.68
2018-03-02T02:29:41.771Z,-2.10
2018-03-02T02:32:10.154Z,-1.70
2018-03-02T02:34:37.722Z,-1.92
2018-03-02T02:37:05.257Z,-2.06
2018-03-02T02:39:32.776Z,-1.99
2018-03-02T02:42:00.333Z,-1.98
2018-03-02T02:44:27.860Z,-2.09
2018-03-02T02:46:55.699Z,-2.00
2018-03-02T02:49:23.220Z,-1.99
2018-03-02T02:51:50.740Z,-1.82
2018-03-02T02:54:18.284Z,-1.90
2018-03-02T02:56:45.814Z,-2.01
2018-03-02T02:59:13.405Z,-1.89
2018-03-02T03:01:40.926Z,-1.88
2018-03-02T03:04:08.454Z,-2.14
2018-03-02T03:06:36.006Z,-2.22
2018-03-02T03:09:03.537Z,-2.43
2018-03-02T03:11:31.097Z,-2.27
2018-03-02T03:13:58.622Z,-2.40
2018-03-02T03:16:26.141Z,-2.20
2018-03-02T03:18:53.974Z,-2.27
2018-03-02T03:21:21.747Z,-2.34
2018-03-02T03:23:49.296Z,-2.67
2018-03-02T03:26:16.834Z,-2.44
2018-03-02T03:28:44.361Z,-2.50
2018-03-02T03:31:12.128Z,-2.40
2018-03-02T03:33:39.658Z,-2.36
2018-03-02T03:36:07.290Z,-2.54
2018-03-02T03:38:34.818Z,-2.59
2018-03-02T03:41:02.345Z,-2.54
2018-03-02T03:43:29.896Z,-2.48
2018-03-02T03:45:57.425Z,-2.50
2018-03-02T03:48:25.174Z,-2.57
2018-03-02T03:50:52.828Z,-2.78
2018-03-02T03:53:20.351Z,-2.59
2018-03-02T03:55:47.902Z,-2.72
2018-03-02T03:58:15.424Z,-2.41
2018-03-02T04:00:43.173Z,-2.44
2018-03-02T04:03:10.705Z,-2.52
2018-03-02T04:05:38.223Z,-2.35
2018-03-02T04:08:05.770Z,-2.53
2018-03-02T04:10:33.285Z,-2.62
2018-03-02T04:13:01.193Z,-2.91
2018-03-02T04:15:28.723Z,-2.62
2018-03-02T04:17:56.254Z,-2.65
2018-03-02T04:20:23.797Z,-2.68
2018-03-02T04:22:51.319Z,-2.47
2018-03-02T04:25:18.882Z,-2.64
2018-03-02T04:27:46.397Z,-2.80
2018-03-02T04:30:13.917Z,-2.94
2018-03-02T04:32:41.474Z,-3.06
2018-03-02T04:35:09.063Z,-3.16
2018-03-02T04:37:36.632Z,-2.91
2018-03-02T04:40:04.150Z,-2.91
2018-03-02T04:42:31.670Z,-2.92
2018-03-02T04:44:59.222Z,-3.00
2018-03-02T04:47:26.746Z,-3.17
2018-03-02T04:49:54.458Z,-2.80
2018-03-02T04:52:21.978Z,-2.83
2018-03-02T04:54:49.493Z,-2.92
2018-03-02T04:57:17.050Z,-2.58
2018-03-02T04:59:44.570Z,-2.82
2018-03-02T05:02:12.249Z,-3.04
2018-03-02T05:04:39.767Z,-2.73
2018-03-02T05:07:07.339Z,-2.65
2018-03-02T05:09:34.892Z,-2.96
2018-03-02T05:12:02.407Z,-3.12
2018-03-02T05:14:30.150Z,-3.29
2018-03-02T05:16:57.664Z,-3.44
2018-03-02T05:19:25.186Z,-3.41
2018-03-02T05:21:52.849Z,-3.48
2018-03-02T05:24:20.377Z,-3.08
2018-03-02T05:26:47.938Z,-3.20
2018-03-02T05:29:15.479Z,-3.14
2018-03-02T05:31:43.002Z,-3.23
2018-03-02T05:34:10.548Z,-3.24
2018-03-02T05:36:38.307Z,-3.45
2018-03-02T05:39:06.153Z,-2.99
2018-03-02T05:41:33.671Z,-3.37
2018-03-02T05:44:01.209Z,-3.30
2018-03-02T05:46:28.762Z,-2.74
2018-03-02T05:48:56.287Z,-2.78
2018-03-02T05:51:23.991Z,-3.05
2018-03-02T05:53:51.505Z,-3.34
2018-03-02T05:56:19.025Z,-3.28
2018-03-02T05:58:46.582Z,-2.98
2018-03-02T06:01:14.102Z,-2.89
2018-03-02T06:03:41.677Z,-2.92
2018-03-02T06:06:09.201Z,-2.95
2018-03-02T06:08:36.770Z,-2.86
2018-03-02T06:11:04.322Z,-2.94
2018-03-02T06:13:31.839Z,-2.70
2018-03-02T06:15:59.650Z,-2.93
2018-03-02T06:18:27.181Z,-2.83
2018-03-02T06:20:54.703Z,-2.74
2018-03-02T06:23:22.261Z,-3.12
2018-03-02T06:25:49.790Z,-2.97
2018-03-02T06:28:17.366Z,-2.67
2018-03-02T06:30:44.881Z,-2.63
2018-03-02T06:33:12.406Z,-2.46
2018-03-02T06:35:39.954Z,-2.81
2018-03-02T06:38:07.474Z,-2.71
2018-03-02T06:40:35.036Z,-2.69
2018-03-02T06:43:02.554Z,-2.29
2018-03-02T06:45:30.131Z,-2.67
2018-03-02T06:47:57.694Z,-2.51
2018-03-02T06:50:25.214Z,-2.60
2018-03-02T06:52:52.992Z,-2.54
2018-03-02T06:55:20.510Z,-2.36
2018-03-02T06:57:48.030Z,-2.26
2018-03-02T07:00:15.593Z,-2.44
2018-03-02T07:02:43.109Z,-2.31
2018-03-02T07:05:11.030Z,-2.49
2018-03-02T07:07:38.552Z,-2.21
2018-03-02T07:10:06.072Z,-2.42
2018-03-02T07:12:33.629Z,-2.38
2018-03-02T07:15:01.146Z,-2.14
2018-03-02T07:17:29.034Z,-2.22
2018-03-02T07:19:56.553Z,-2.31
2018-03-02T07:22:24.152Z,-2.41
2018-03-02T07:24:51.696Z,-2.41
2018-03-02T07:27:19.219Z,-2.29
2018-03-02T07:29:46.933Z,-2.20
2018-03-02T07:32:14.456Z,-2.38
2018-03-02T07:34:41.990Z,-2.44
2018-03-02T07:37:09.530Z,-2.33
2018-03-02T07:39:37.050Z,-2.36
2018-03-02T07:42:04.834Z,-2.53
2018-03-02T07:44:32.353Z,-2.54
2018-03-02T07:46:59.870Z,-2.83
2018-03-02T07:49:27.742Z,-2.78
2018-03-02T07:51:55.264Z,-2.55
2018-03-02T07:54:23.133Z,-2.25
2018-03-02T07:56:50.925Z,-2.22
2018-03-02T07:59:18.447Z,-2.48
2018-03-02T08:01:45.998Z,-1.79
2018-03-02T08:04:13.519Z,-1.73
2018-03-02T08:06:41.346Z,-1.91
2018-03-02T08:09:08.897Z,-2.00
2018-03-02T08:11:36.410Z,-2.04
2018-03-02T08:14:03.965Z,-1.90
2018-03-02T08:16:31.490Z,-2.09
2018-03-02T08:18:59.265Z,-1.89
2018-03-02T08:21:26.794Z,-1.82
2018-03-02T08:23:54.305Z,-1.52
2018-03-02T08:26:21.890Z,-0.82
2018-03-02T08:28:49.410Z,-1.00
2018-03-02T08:31:17.093Z,-0.88
2018-03-02T08:33:44.622Z,-0.73
2018-03-02T08:36:12.141Z,-0.98
2018-03-02T08:38:39.682Z,-0.62
2018-03-02T08:41:07.203Z,-0.22
2018-03-02T08:43:34.772Z,-0.35
2018-03-02T08:46:02.290Z,-0.14
2018-03-02T08:48:29.814Z,-0.33
2018-03-02T08:50:57.366Z,-0.05
2018-03-02T08:53:24.887Z,-0.25
2018-03-02T08:55:52.848Z,-0.41
2018-03-02T08:58:20.380Z,-0.16
2018-03-02T09:00:48.113Z,0.19
2018-03-02T09:03:15.662Z,-0.37
2018-03-02T09:05:43.194Z,-0.04
2018-03-02T09:08:10.915Z,-0.04
2018-03-02T09:10:38.434Z,0.31
2018-03-02T09:13:05.958Z,0.06
2018-03-02T09:15:33.506Z,0.26
2018-03-02T09:18:01.026Z,0.09
2018-03-02T09:20:28.736Z,0.40
2018-03-02T09:22:56.254Z,0.74
2018-03-02T09:25:23.779Z,0.49
2018-03-02T09:27:51.371Z,0.49
2018-03-02T09:30:18.906Z,0.84
2018-03-02T09:32:46.630Z,1.08
2018-03-02T09:35:14.153Z,0.83
2018-03-02T09:37:41.677Z,1.40
2018-03-02T09:40:09.214Z,1.62
2018-03-02T09:42:36.747Z,2.69
2018-03-02T09:45:04.637Z,3.34
2018-03-02T09:47:32.154Z,3.45
2018-03-02T09:49:59.738Z,2.68
2018-03-02T09:52:27.295Z,3.50
2018-03-02T09:54:54.814Z,3.49
2018-03-02T09:57:22.674Z,3.87
2018-03-02T09:59:50.206Z,4.34
2018-03-02T10:02:17.726Z,6.98
2018-03-02T10:04:45.303Z,8.08
2018-03-02T10:07:13.816Z,6.40
2018-03-02T10:09:41.518Z,5.82
2018-03-02T10:12:09.140Z,5.38
2018-03-02T10:14:36.688Z,6.04
2018-03-02T10:17:04.238Z,6.37
2018-03-02T10:19:31.824Z,7.42
2018-03-02T10:21:59.684Z,7.65
2018-03-02T10:24:27.345Z,6.84
2018-03-02T10:26:54.874Z,6.52
2018-03-02T10:29:22.670Z,6.22
2018-03-02T10:31:50.187Z,5.85
2018-03-02T10:34:17.871Z,5.76
2018-03-02T10:36:45.528Z,6.09
2018-03-02T10:39:13.047Z,4.81
2018-03-02T10:41:40.598Z,5.79
2018-03-02T10:44:08.115Z,6.40
2018-03-02T10:46:35.673Z,5.46
2018-03-02T10:49:03.193Z,6.03
2018-03-02T10:51:30.714Z,6.74
2018-03-02T10:53:58.259Z,6.79
2018-03-02T10:56:25.774Z,6.74
2018-03-02T10:58:53.565Z,6.54
2018-03-02T11:01:26.003Z,6.73
2018-03-02T11:04:01.132Z,7.10
2018-03-02T11:06:28.652Z,6.57
2018-03-02T11:08:56.167Z,6.69
2018-03-02T11:11:23.716Z,6.51
2018-03-02T11:13:51.314Z,6.97
2018-03-02T11:16:19.277Z,8.39
2018-03-02T11:18:46.794Z,9.10
2018-03-02T11:21:14.301Z,9.93
2018-03-02T11:23:41.841Z,9.49
2018-03-02T11:26:09.370Z,9.74
2018-03-02T11:28:37.174Z,8.69
2018-03-02T11:31:04.695Z,8.72
2018-03-02T11:33:32.382Z,9.53
2018-03-02T11:35:59.951Z,10.22
2018-03-02T11:38:27.469Z,9.89
2018-03-02T11:40:55.373Z,9.11
2018-03-02T11:43:22.921Z,8.98
2018-03-02T11:45:50.438Z,9.12
2018-03-02T11:48:17.980Z,8.81
2018-03-02T11:50:45.506Z,8.97
2018-03-02T11:53:13.287Z,8.80
2018-03-02T11:55:41.189Z,9.00
2018-03-02T11:58:08.723Z,8.29
2018-03-02T12:00:36.287Z,8.33
2018-03-02T12:03:03.802Z,7.47
2018-03-02T12:05:31.486Z,7.83
2018-03-02T12:07:59.008Z,7.50
2018-03-02T12:10:26.523Z,7.80
2018-03-02T12:12:54.097Z,8.05
2018-03-02T12:15:21.617Z,7.37
2018-03-02T12:17:49.175Z,7.22
2018-03-02T12:20:16.705Z,7.26
2018-03-02T12:22:44.249Z,7.72
2018-03-02T12:25:11.801Z,7.95
2018-03-02T12:27:39.334Z,8.01
2018-03-02T12:30:07.193Z,7.36
2018-03-02T12:32:34.707Z,7.31
2018-03-02T12:35:02.306Z,7.18
2018-03-02T12:37:29.942Z,7.15
2018-03-02T12:39:57.639Z,6.96
2018-03-02T12:42:25.289Z,7.10
2018-03-02T12:44:52.818Z,7.03
2018-03-02T12:47:20.392Z,6.96
2018-03-02T12:49:48.092Z,6.65
2018-03-02T12:52:16.462Z,6.52
2018-03-02T12:54:44.115Z,6.29
2018-03-02T12:57:11.642Z,6.20
2018-03-02T12:59:39.206Z,5.93
2018-03-02T13:02:06.832Z,6.15
2018-03-02T13:04:34.568Z,6.04
2018-03-02T13:07:02.280Z,5.98
2018-03-02T13:09:29.946Z,5.62
2018-03-02T13:11:57.656Z,5.65
2018-03-02T13:14:25.245Z,5.15
2018-03-02T13:16:52.866Z,5.40
2018-03-02T13:19:20.641Z,4.96
2018-03-02T13:21:48.373Z,4.92
2018-03-02T13:24:16.194Z,4.48
2018-03-02T13:29:47.733Z,5.17
2018-03-02T13:32:15.811Z,4.92
2018-03-02T13:34:55.658Z,4.60
2018-03-02T13:37:23.321Z,4.67
2018-03-02T13:40:03.168Z,4.68
2018-03-02T13:42:31.136Z,4.34
2018-03-02T13:44:58.792Z,4.45
2018-03-02T13:47:36.482Z,4.43
2018-03-02T13:50:08.222Z,4.47
2018-03-02T13:52:36.081Z,4.68
2018-03-02T13:55:03.642Z,4.93
2018-03-02T13:57:43.155Z,5.05
2018-03-02T14:00:10.848Z,5.25
2018-03-02T14:02:50.422Z,5.21
2018-03-02T14:05:18.168Z,5.73
2018-03-02T14:07:46.052Z,5.80
2018-03-02T14:10:14.119Z,5.24
2018-03-02T14:12:41.885Z,4.99
2018-03-02T14:15:09.753Z,4.85
2018-03-02T14:17:37.546Z,5.04
2018-03-02T14:20:05.489Z,5.45
2018-03-02T14:22:33.353Z,5.69
2018-03-02T14:25:01.244Z,5.92
2018-03-02T14:27:30.110Z,5.81
2018-03-02T14:29:57.874Z,4.96
2018-03-02T14:32:25.738Z,5.08
2018-03-02T14:34:53.817Z,5.23
2018-03-02T14:37:21.676Z,5.31
2018-03-02T14:39:49.667Z,5.41
2018-03-02T14:42:17.614Z,5.51
2018-03-02T14:44:45.583Z,5.53
2018-03-02T14:47:13.450Z,5.28
2018-03-02T14:49:41.264Z,5.29
2018-03-02T14:52:10.080Z,5.45
2018-03-02T14:54:37.978Z,5.47
2018-03-02T14:57:05.836Z,5.63
2018-03-02T14:59:33.708Z,5.67
2018-03-02T15:02:01.572Z,5.31
2018-03-02T15:04:30.381Z,5.39
2018-03-02T15:06:58.406Z,5.24
2018-03-02T15:09:26.501Z,5.11
2018-03-02T15:11:54.468Z,5.01
2018-03-02T15:14:22.269Z,5.18
2018-03-02T15:16:51.123Z,5.33
2018-03-02T15:19:18.990Z,5.04
2018-03-02T15:21:47.061Z,5.27
2018-03-02T15:24:14.996Z,5.33
2018-03-02T15:26:42.796Z,5.33
2018-03-02T15:29:10.867Z,5.36
2018-03-02T15:31:38.630Z,5.27
2018-03-02T15:34:06.606Z,5.18
2018-03-02T15:36:34.260Z,5.10
2018-03-02T15:39:02.919Z,4.98
2018-03-02T15:41:31.662Z,4.77
2018-03-02T15:43:59.395Z,4.15
2018-03-02T15:46:27.261Z,4.38
2018-03-02T15:48:55.538Z,4.42
2018-03-02T15:51:23.404Z,4.30
2018-03-02T15:53:51.168Z,4.34
2018-03-02T15:56:18.928Z,4.31
2018-03-02T15:58:46.838Z,4.25
2018-03-02T16:01:14.665Z,4.19
2018-03-02T16:03:42.430Z,4.13
2018-03-02T16:06:10.808Z,3.91
2018-03-02T16:08:38.776Z,4.15
2018-03-02T16:11:06.642Z,4.11
2018-03-02T16:13:34.876Z,4.12
2018-03-02T16:16:02.785Z,3.92
2018-03-02T16:18:31.896Z,3.81
2018-03-02T16:21:00.568Z,3.90
2018-03-02T16:23:28.611Z,3.94
2018-03-02T16:25:56.504Z,3.72
2018-03-02T16:28:24.477Z,3.65
2018-03-02T16:30:52.338Z,3.49
2018-03-02T16:33:20.998Z,3.58
2018-03-02T16:35:48.788Z,3.20
2018-03-02T16:38:16.855Z,3.47
2018-03-02T16:40:44.628Z,3.44
2018-03-02T16:43:12.389Z,3.46
2018-03-02T16:45:40.644Z,3.44
2018-03-02T16:48:08.488Z,3.43
2018-03-02T16:50:36.192Z,3.46
2018-03-02T16:53:04.058Z,3.48
2018-03-02T16:55:32.452Z,3.43
2018-03-02T16:58:00.509Z,3.46
2018-03-02T17:00:28.482Z,3.47
2018-03-02T17:02:56.384Z,3.45
2018-03-02T17:05:24.415Z,3.36
2018-03-02T17:07:52.366Z,3.12
2018-03-02T17:10:20.250Z,3.23
2018-03-02T17:12:47.914Z,3.34
2018-03-02T17:15:15.880Z,3.35
2018-03-02T17:17:45.082Z,3.14
2018-03-02T17:20:13.055Z,3.21
2018-03-02T17:22:40.923Z,3.26
2018-03-02T17:25:08.785Z,3.12
2018-03-02T17:27:36.646Z,2.87
2018-03-02T17:30:04.411Z,2.90
2018-03-02T17:32:32.463Z,2.97
2018-03-02T17:35:00.146Z,3.02
2018-03-02T17:37:28.027Z,2.81
2018-03-02T17:39:55.756Z,2.98
2018-03-02T17:42:23.644Z,2.72
2018-03-02T17:44:51.610Z,2.80
2018-03-02T17:47:19.886Z,2.86
2018-03-02T17:49:49.706Z,2.94
2018-03-02T17:52:18.479Z,2.97
2018-03-02T17:54:47.172Z,2.98
2018-03-02T17:57:15.141Z,3.09
2018-03-02T17:59:43.008Z,3.01
2018-03-02T18:02:11.365Z,3.13
2018-03-02T18:04:39.251Z,3.16
2018-03-02T18:07:07.118Z,3.06
2018-03-02T18:09:35.191Z,3.12
2018-03-02T18:12:03.159Z,3.03
2018-03-02T18:14:31.025Z,3.13
2018-03-02T18:16:58.955Z,3.16
2018-03-02T18:19:26.760Z,3.17
2018-03-02T18:21:54.957Z,3.17
2018-03-02T18:24:23.688Z,3.03
2018-03-02T18:26:51.791Z,2.98
2018-03-02T18:29:19.688Z,3.03
2018-03-02T18:31:47.626Z,3.04
2018-03-02T18:34:16.336Z,2.86
2018-03-02T18:36:44.313Z,2.99
2018-03-02T18:39:12.148Z,3.01
2018-03-02T18:41:40.218Z,3.02
2018-03-02T18:44:08.085Z,3.03
2018-03-02T18:46:36.053Z,3.00
2018-03-02T18:49:04.027Z,2.68
2018-03-02T18:51:31.865Z,3.03
2018-03-02T18:54:00.472Z,2.96
2018-03-02T18:56:28.340Z,2.87
2018-03-02T18:58:56.119Z,2.80
2018-03-02T19:01:24.072Z,2.83
2018-03-02T19:03:52.044Z,2.73
2018-03-02T19:06:20.113Z,2.83
2018-03-02T19:08:48.348Z,2.85
2018-03-02T19:11:17.380Z,2.78
2018-03-02T19:13:45.355Z,2.76
2018-03-02T19:16:13.177Z,2.74
2018-03-02T19:18:41.697Z,2.83
2018-03-02T19:21:09.973Z,2.72
2018-03-02T19:23:37.942Z,2.77
2018-03-02T19:26:05.893Z,2.90
2018-03-02T19:28:33.986Z,2.93
2018-03-02T19:31:02.550Z,2.90
2018-03-02T19:33:30.433Z,2.69
2018-03-02T19:35:58.503Z,2.79
2018-03-02T19:38:26.644Z,2.75
2018-03-02T19:40:54.544Z,2.77
2018-03-02T19:43:22.717Z,2.79
2018-03-02T19:45:50.686Z,2.89
2018-03-02T19:48:18.657Z,2.88
2018-03-02T19:50:46.682Z,2.95
2018-03-02T19:53:14.574Z,2.94
2018-03-02T19:55:42.664Z,2.98
2018-03-02T19:58:11.248Z,2.92
2018-03-02T20:00:39.217Z,3.02
2018-03-02T20:03:07.184Z,2.96
2018-03-02T20:05:35.215Z,2.77
2018-03-02T20:08:03.056Z,2.64
2018-03-02T20:10:31.768Z,2.75
2018-03-02T20:12:59.675Z,2.64
2018-03-02T20:15:28.451Z,2.70
2018-03-02T20:17:56.331Z,2.77
2018-03-02T20:20:24.258Z,2.65
2018-03-02T20:22:52.191Z,2.67
2018-03-02T20:25:20.032Z,2.60
2018-03-02T20:27:48.419Z,2.76
2018-03-02T20:30:16.349Z,2.81
2018-03-02T20:32:44.263Z,2.52
2018-03-02T20:35:12.189Z,2.39
2018-03-02T20:37:40.291Z,2.33
2018-03-02T20:40:09.176Z,2.42
2018-03-02T20:42:37.031Z,2.48
2018-03-02T20:45:05.544Z,2.52
2018-03-02T20:47:34.413Z,2.59
2018-03-02T20:50:02.283Z,2.39
2018-03-02T20:52:30.321Z,2.50
2018-03-02T20:54:58.322Z,2.45
2018-03-02T20:57:26.189Z,2.53
2018-03-02T20:59:54.749Z,2.51
2018-03-02T21:02:22.637Z,2.45
2018-03-02T21:04:50.606Z,2.27
2018-03-02T21:07:18.575Z,2.16
2018-03-02T21:09:46.862Z,2.34
2018-03-02T21:12:14.729Z,2.33
2018-03-02T21:14:42.583Z,2.34
2018-03-02T21:17:10.554Z,2.35
2018-03-02T21:19:38.420Z,2.30
2018-03-02T21:22:06.388Z,2.25
2018-03-02T21:24:34.767Z,2.37
2018-03-02T21:27:03.043Z,2.32
2018-03-02T21:29:30.914Z,2.33
2018-03-02T21:31:59.594Z,2.33
2018-03-02T21:34:27.801Z,2.41
2018-03-02T21:36:55.650Z,2.37
2018-03-02T21:39:24.014Z,2.45
2018-03-02T21:41:51.982Z,2.33
2018-03-02T21:44:19.849Z,2.36
2018-03-02T21:46:47.587Z,2.51
2018-03-02T21:49:15.403Z,2.52
2018-03-02T21:51:43.156Z,2.30
2018-03-02T21:54:11.058Z,2.46
2018-03-02T21:56:39.029Z,2.42
2018-03-02T21:59:07.053Z,2.04
2018-03-02T22:01:34.915Z,2.13
2018-03-02T22:04:02.783Z,2.19
2018-03-02T22:06:30.558Z,2.29
2018-03-02T22:08:58.346Z,2.29
2018-03-02T22:11:26.576Z,2.19
2018-03-02T22:13:54.247Z,2.01
2018-03-02T22:16:22.122Z,2.16
2018-03-02T22:18:49.797Z,2.07
2018-03-02T22:21:17.372Z,2.26
2018-03-02T22:23:45.297Z,2.22
2018-03-02T22:26:12.971Z,2.30
2018-03-02T22:28:40.506Z,2.13
2018-03-02T22:31:08.135Z,2.17
2018-03-02T22:33:35.901Z,2.30
2018-03-02T22:36:03.714Z,2.33
2018-03-02T22:38:31.379Z,2.32
2018-03-02T22:40:59.245Z,2.29
2018-03-02T22:43:27.124Z,2.35
2018-03-02T22:45:54.771Z,2.25
2018-03-02T22:48:22.534Z,2.31
2018-03-02T22:50:50.166Z,2.31
2018-03-02T22:53:17.812Z,2.34
2018-03-02T22:55:45.520Z,2.26
2018-03-02T22:58:13.386Z,2.34
2018-03-02T23:00:41.686Z,2.30
2018-03-02T23:03:09.410Z,2.15
2018-03-02T23:05:37.014Z,2.13
2018-03-02T23:08:04.808Z,2.05
2018-03-02T23:10:32.517Z,2.20
2018-03-02T23:13:00.474Z,2.12
2018-03-02T23:15:28.307Z,2.05
2018-03-02T23:17:56.707Z,2.00
2018-03-02T23:20:24.306Z,2.02
2018-03-02T23:22:52.686Z,2.11
2018-03-02T23:25:21.510Z,2.01
2018-03-02T23:27:49.414Z,2.03
2018-03-02T23:30:17.188Z,1.93
2018-03-02T23:32:44.962Z,1.93
2018-03-02T23:35:12.499Z,2.09
2018-03-02T23:37:40.455Z,2.00
2018-03-02T23:40:08.144Z,2.10
2018-03-02T23:42:35.671Z,2.16
2018-03-02T23:45:03.463Z,2.18
2018-03-02T23:47:30.998Z,2.09
2018-03-02T23:49:58.561Z,2.00
2018-03-02T23:52:28.806Z,2.01
2018-03-02T23:54:56.390Z,1.94
2018-03-02T23:57:23.982Z,1.96
2018-03-02T23:59:52.235Z,1.92
